Time;durP1;ratioP1;P1;durP2;ratioP2;P2;SDS_P1;SDS_P2;PMS_P1;PMS_P2;Temp;Humidity;BMP_temperature;BMP_pressure;BME280_temperature;BME280_humidity;BME280_pressure;Samples;Min_cycle;Max_cycle;Signal;HPM_P1;HPM_P2
2021/09/12 00:00:31;;;;;;;11.50;10.40;;;;;23.80;100676.00;;;;2070053;28;20210;-57
2021/09/12 00:01:31;;;;;;;11.83;10.83;;;;;23.80;100675.00;;;;2070004;28;20226;-55
2021/09/12 00:02:31;;;;;;;10.87;9.97;;;;;23.80;100671.00;;;;2070502;28;20214;-55
2021/09/12 00:03:32;;;;;;;11.13;10.23;;;;;23.80;100678.00;;;;2063838;28;20750;-55
2021/09/12 00:04:32;;;;;;;10.93;9.77;;;;;23.80;100675.00;;;;2061839;28;20674;-55
2021/09/12 00:05:35;;;;;;;10.47;9.53;;;;;23.80;100680.00;;;;2062310;28;20306;-55
2021/09/12 00:06:36;;;;;;;10.60;9.70;;;;;23.80;100688.00;;;;2058581;28;20286;-56
2021/09/12 00:07:37;;;;;;;11.97;10.97;;;;;23.80;100677.00;;;;2066474;28;20229;-57
2021/09/12 00:08:37;;;;;;;10.60;9.70;;;;;23.80;100681.00;;;;2063090;28;20489;-56
2021/09/12 00:09:37;;;;;;;10.53;9.63;;;;;23.60;100683.00;;;;2058668;28;20326;-55
2021/09/12 00:10:38;;;;;;;11.77;10.77;;;;;23.80;100679.00;;;;2062496;28;20230;-56
2021/09/12 00:11:38;;;;;;;11.30;10.30;;;;;23.80;100678.00;;;;2068233;28;20599;-56
2021/09/12 00:12:39;;;;;;;9.70;8.90;;;;;23.80;100682.00;;;;2069546;28;20226;-57
2021/09/12 00:13:41;;;;;;;11.57;10.57;;;;;23.80;100680.00;;;;2070333;28;20219;-57
2021/09/12 00:14:41;;;;;;;10.98;10.00;;;;;23.80;100685.00;;;;2064054;28;20773;-60
2021/09/12 00:15:42;;;;;;;10.13;9.23;;;;;23.80;100685.00;;;;2070455;28;20314;-57
2021/09/12 00:16:42;;;;;;;10.60;9.70;;;;;23.80;100689.00;;;;2070655;28;20701;-57
2021/09/12 00:17:43;;;;;;;11.90;10.90;;;;;23.80;100676.00;;;;2064705;28;20223;-57
2021/09/12 00:18:43;;;;;;;10.87;9.97;;;;;23.90;100683.00;;;;2061757;28;20765;-56
2021/09/12 00:19:43;;;;;;;10.53;9.63;;;;;23.70;100679.00;;;;2059949;28;20230;-56
2021/09/12 00:20:44;;;;;;;10.83;9.93;;;;;23.80;100681.00;;;;2062223;28;20230;-55
2021/09/12 00:21:44;;;;;;;10.70;9.80;;;;;23.80;100672.00;;;;2062446;28;20250;-57
2021/09/12 00:22:44;;;;;;;10.83;9.93;;;;;23.80;100673.00;;;;2070899;28;20230;-58
2021/09/12 00:23:45;;;;;;;11.57;10.50;;;;;23.80;100688.00;;;;2066716;28;20219;-57
2021/09/12 00:24:45;;;;;;;11.53;10.63;;;;;23.80;100676.00;;;;2059920;28;20222;-57
2021/09/12 00:25:45;;;;;;;12.10;11.10;;;;;23.80;100674.00;;;;2062680;28;20222;-57
2021/09/12 00:26:46;;;;;;;11.30;10.30;;;;;23.80;100680.00;;;;2062911;28;20238;-56
2021/09/12 00:27:46;;;;;;;10.20;9.30;;;;;23.80;100667.00;;;;2062869;28;20222;-56
2021/09/12 00:28:46;;;;;;;10.33;9.37;;;;;23.80;100670.00;;;;2065082;28;20229;-57
2021/09/12 00:29:47;;;;;;;11.30;10.30;;;;;23.80;100676.00;;;;2068255;28;20333;-56
2021/09/12 00:30:47;;;;;;;10.10;9.20;;;;;23.80;100663.00;;;;2069615;28;20218;-56
2021/09/12 00:31:48;;;;;;;10.40;9.47;;;;;23.80;100665.00;;;;2070372;28;20290;-56
2021/09/12 00:32:48;;;;;;;10.23;9.38;;;;;23.80;100668.00;;;;2070883;28;20309;-55
2021/09/12 00:33:49;;;;;;;10.30;9.40;;;;;23.80;100655.00;;;;2071172;28;20230;-57
2021/09/12 00:34:49;;;;;;;10.50;9.50;;;;;23.80;100659.00;;;;2069157;28;20218;-57
2021/09/12 00:35:49;;;;;;;10.97;9.97;;;;;23.80;100665.00;;;;2060297;28;20253;-57
2021/09/12 00:36:50;;;;;;;11.00;10.00;;;;;23.80;100667.00;;;;2061810;28;20297;-56
2021/09/12 00:37:50;;;;;;;10.87;9.97;;;;;23.80;100665.00;;;;2066649;28;20298;-56
2021/09/12 00:38:51;;;;;;;10.30;9.50;;;;;23.80;100670.00;;;;2061630;28;20215;-56
2021/09/12 00:39:51;;;;;;;10.83;9.83;;;;;23.80;100668.00;;;;2062780;28;20222;-57
2021/09/12 00:40:55;;;;;;;11.27;10.37;;;;;23.80;100666.00;;;;2061926;28;20242;-57
2021/09/12 00:41:56;;;;;;;10.70;9.70;;;;;23.80;100666.00;;;;2062117;28;20223;-57
2021/09/12 00:42:56;;;;;;;10.93;9.83;;;;;23.80;100674.00;;;;2061969;28;20226;-58
2021/09/12 00:44:00;;;;;;;11.20;10.20;;;;;23.80;100668.00;;;;2062842;28;20215;-55
2021/09/12 00:45:00;;;;;;;10.77;9.77;;;;;23.80;100667.00;;;;2062661;28;20218;-55
2021/09/12 00:46:06;;;;;;;10.37;9.50;;;;;23.80;100673.00;;;;2066615;28;20289;-56
2021/09/12 00:47:11;;;;;;;10.82;9.93;;;;;23.80;100669.00;;;;2070910;28;20214;-56
2021/09/12 00:48:11;;;;;;;11.15;10.10;;;;;23.80;100669.00;;;;2070931;28;20301;-58
2021/09/12 00:49:12;;;;;;;10.70;9.80;;;;;23.80;100674.00;;;;2069670;28;20218;-57
2021/09/12 00:50:13;;;;;;;8.83;8.03;;;;;23.80;100666.00;;;;2070484;28;20582;-56
2021/09/12 00:51:13;;;;;;;10.70;9.80;;;;;23.80;100666.00;;;;2070648;28;20250;-57
2021/09/12 00:52:14;;;;;;;10.33;9.53;;;;;23.80;100520.00;;;;2067073;28;20231;-55
2021/09/12 00:53:15;;;;;;;9.83;9.03;;;;;23.80;100662.00;;;;2062769;28;20215;-57
2021/09/12 00:54:15;;;;;;;9.07;8.37;;;;;23.80;100662.00;;;;2062660;28;20222;-56
2021/09/12 00:55:17;;;;;;;10.20;9.40;;;;;23.80;100664.00;;;;2058814;28;20521;-57
2021/09/12 00:56:18;;;;;;;9.88;8.95;;;;;23.80;100662.00;;;;2053521;28;20305;-55
2021/09/12 00:57:18;;;;;;;10.43;9.53;;;;;23.80;100648.00;;;;2062291;28;20260;-56
2021/09/12 00:58:18;;;;;;;9.97;9.17;;;;;23.80;100667.00;;;;2053806;28;20211;-56
2021/09/12 00:59:19;;;;;;;10.60;9.70;;;;;23.80;100655.00;;;;2052874;28;20216;-57
2021/09/12 01:00:19;;;;;;;9.20;8.30;;;;;23.80;100659.00;;;;2053679;28;20298;-56
2021/09/12 01:01:19;;;;;;;9.30;8.40;;;;;23.80;100660.00;;;;2052958;28;20215;-56
2021/09/12 01:02:20;;;;;;;9.87;9.00;;;;;23.80;100670.00;;;;2062264;28;20342;-56
2021/09/12 01:03:20;;;;;;;8.93;8.23;;;;;23.80;100667.00;;;;2062036;28;20226;-61
2021/09/12 01:04:21;;;;;;;9.50;8.63;;;;;23.80;100663.00;;;;2062011;28;20215;-61
2021/09/12 01:07:17;;;;;;;10.10;9.20;;;;;23.80;100659.00;;;;2064886;28;20207;-55
2021/09/12 01:08:18;;;;;;;9.63;8.83;;;;;23.80;100662.00;;;;2064010;28;20211;-54
2021/09/12 01:09:18;;;;;;;9.77;8.97;;;;;23.80;100662.00;;;;2061826;28;20323;-55
2021/09/12 01:10:18;;;;;;;10.60;9.00;;;;;23.80;100658.00;;;;2062405;28;20225;-55
2021/09/12 01:11:19;;;;;;;10.50;9.40;;;;;23.80;100666.00;;;;2061848;28;20785;-57
2021/09/12 01:12:19;;;;;;;8.97;8.17;;;;;23.80;100664.00;;;;2070896;28;20582;-58
2021/09/12 01:13:19;;;;;;;9.90;8.90;;;;;23.80;100668.00;;;;2070912;28;20320;-55
2021/09/12 01:14:24;;;;;;;8.93;8.13;;;;;23.80;100666.00;;;;2070825;28;20230;-56
2021/09/12 01:15:25;;;;;;;9.98;9.07;;;;;23.80;100659.00;;;;2069991;28;20218;-57
2021/09/12 01:16:25;;;;;;;9.43;8.63;;;;;23.80;100659.00;;;;2069834;28;20260;-56
2021/09/12 01:17:26;;;;;;;9.27;8.47;;;;;23.80;100657.00;;;;2070899;28;20217;-55
2021/09/12 01:18:27;;;;;;;9.05;8.25;;;;;23.80;100650.00;;;;2070775;28;20301;-60
2021/09/12 01:19:28;;;;;;;9.70;8.80;;;;;23.80;100655.00;;;;2069541;28;20221;-57
2021/09/12 01:20:29;;;;;;;9.45;8.55;;;;;23.80;100644.00;;;;2070337;28;20288;-56
2021/09/12 01:21:31;;;;;;;10.43;9.53;;;;;23.80;100646.00;;;;2070694;28;20717;-56
2021/09/12 01:22:31;;;;;;;9.20;8.50;;;;;23.70;100647.00;;;;2070055;28;20730;-55
2021/09/12 01:23:32;;;;;;;8.33;7.63;;;;;23.80;100655.00;;;;2068702;28;20218;-56
2021/09/12 01:24:32;;;;;;;9.23;8.43;;;;;23.80;100645.00;;;;2070487;28;20221;-56
2021/09/12 01:25:35;;;;;;;8.80;8.10;;;;;23.80;100651.00;;;;2070759;28;20571;-55
2021/09/12 01:26:35;;;;;;;8.63;7.90;;;;;23.80;100648.00;;;;2070996;28;20248;-56
2021/09/12 01:27:35;;;;;;;8.60;7.90;;;;;23.80;100645.00;;;;2070612;28;20620;-56
2021/09/12 01:28:39;;;;;;;8.90;8.17;;;;;23.80;100645.00;;;;2070628;28;20213;-55
2021/09/12 01:29:40;;;;;;;8.05;7.45;;;;;23.80;100646.00;;;;2067063;28;20293;-54
2021/09/12 01:30:40;;;;;;;9.50;8.80;;;;;23.80;100650.00;;;;2062009;28;20207;-56
2021/09/12 01:31:41;;;;;;;8.87;8.17;;;;;23.80;100642.00;;;;2062539;28;20223;-56
2021/09/12 01:32:41;;;;;;;8.50;7.80;;;;;23.80;100642.00;;;;2061457;28;20215;-57
2021/09/12 01:33:41;;;;;;;9.43;8.60;;;;;23.80;100645.00;;;;2062297;28;20210;-57
2021/09/12 01:34:42;;;;;;;9.07;8.37;;;;;23.80;100646.00;;;;2070522;28;20241;-56
2021/09/12 01:35:42;;;;;;;8.83;8.03;;;;;23.80;100645.00;;;;2069989;28;20206;-55
2021/09/12 01:36:42;;;;;;;8.70;8.00;;;;;23.80;100639.00;;;;2070623;28;20234;-56
2021/09/12 01:37:43;;;;;;;8.63;7.90;;;;;23.80;100640.00;;;;2066495;28;20292;-56
2021/09/12 01:38:44;;;;;;;9.43;8.47;;;;;23.80;100638.00;;;;2061339;28;20661;-57
2021/09/12 01:39:44;;;;;;;9.10;8.30;;;;;23.80;100642.00;;;;2061944;28;20233;-56
2021/09/12 01:40:44;;;;;;;8.67;7.87;;;;;23.80;100637.00;;;;2062318;28;20446;-56
2021/09/12 01:41:45;;;;;;;8.13;7.43;;;;;23.80;100635.00;;;;2062456;28;20225;-55
2021/09/12 01:42:45;;;;;;;9.00;8.20;;;;;23.80;100637.00;;;;2063181;28;20306;-57
2021/09/12 01:43:46;;;;;;;8.80;8.10;;;;;23.80;100637.00;;;;2070664;28;20941;-56
2021/09/12 01:44:47;;;;;;;8.47;7.77;;;;;23.80;100637.00;;;;2070188;28;20214;-55
2021/09/12 01:45:47;;;;;;;9.23;8.40;;;;;23.70;100636.00;;;;2070613;28;20268;-57
2021/09/12 01:46:48;;;;;;;9.93;8.90;;;;;23.80;100638.00;;;;2070758;28;20458;-57
2021/09/12 01:47:48;;;;;;;8.53;7.83;;;;;23.80;100639.00;;;;2063809;28;20228;-58
2021/09/12 01:48:48;;;;;;;8.70;7.90;;;;;23.70;100635.00;;;;2061387;28;20246;-55
2021/09/12 01:49:49;;;;;;;7.73;7.10;;;;;23.80;100634.00;;;;2062374;28;20619;-56
2021/09/12 01:50:49;;;;;;;9.00;8.20;;;;;23.80;100639.00;;;;2062293;28;20225;-57
2021/09/12 01:51:53;;;;;;;7.90;7.20;;;;;23.80;100639.00;;;;2078121;28;20741;-56
2021/09/12 01:52:54;;;;;;;10.40;8.38;;;;;23.80;100640.00;;;;2071763;28;20219;-57
2021/09/12 01:53:54;;;;;;;8.37;7.67;;;;;23.80;100638.00;;;;2070421;28;20219;-55
2021/09/12 01:54:54;;;;;;;9.70;8.70;;;;;23.70;100633.00;;;;2070530;28;20233;-56
2021/09/12 01:55:55;;;;;;;8.90;8.03;;;;;23.70;100640.00;;;;2070206;28;20225;-55
2021/09/12 01:56:55;;;;;;;8.10;7.40;;;;;23.80;100630.00;;;;2070629;28;20210;-55
2021/09/12 01:57:55;;;;;;;9.40;8.60;;;;;23.80;100634.00;;;;2070560;28;20221;-54
2021/09/12 01:58:56;;;;;;;8.40;7.70;;;;;23.80;100636.00;;;;2068770;28;20218;-56
2021/09/12 01:59:56;;;;;;;9.90;9.00;;;;;23.80;100635.00;;;;2062455;28;20936;-57
2021/09/12 02:00:56;;;;;;;8.57;7.87;;;;;23.80;100634.00;;;;2061998;28;20239;-57
2021/09/12 02:01:57;;;;;;;9.50;8.70;;;;;23.80;100629.00;;;;2062547;28;20687;-56
2021/09/12 02:02:58;;;;;;;8.80;8.10;;;;;23.80;100635.00;;;;2068599;28;20218;-56
2021/09/12 02:03:59;;;;;;;8.82;8.02;;;;;23.80;100629.00;;;;2070307;28;20225;-56
2021/09/12 02:04:59;;;;;;;8.23;7.63;;;;;23.80;100634.00;;;;2069965;28;20706;-56
2021/09/12 02:06:00;;;;;;;9.77;8.77;;;;;23.80;100633.00;;;;2070489;28;20248;-55
2021/09/12 02:07:00;;;;;;;7.70;7.00;;;;;23.80;100643.00;;;;2068189;28;20214;-56
2021/09/12 02:08:01;;;;;;;8.37;7.67;;;;;23.70;100638.00;;;;2065990;28;20211;-56
2021/09/12 02:09:01;;;;;;;7.97;7.17;;;;;23.70;100641.00;;;;2061161;28;20266;-56
2021/09/12 02:10:01;;;;;;;8.37;7.63;;;;;23.70;100637.00;;;;2062228;28;20215;-56
2021/09/12 02:11:02;;;;;;;8.70;7.93;;;;;23.70;100641.00;;;;2060868;28;20277;-56
2021/09/12 02:12:02;;;;;;;8.43;7.70;;;;;23.70;100637.00;;;;2062370;28;20218;-55
2021/09/12 02:13:03;;;;;;;7.00;6.40;;;;;23.70;100644.00;;;;2062347;28;20230;-55
2021/09/12 02:14:03;;;;;;;8.97;8.17;;;;;23.70;100638.00;;;;2062451;28;20229;-56
2021/09/12 02:15:04;;;;;;;8.30;7.60;;;;;23.80;100635.00;;;;2062261;28;20306;-56
2021/09/12 02:16:04;;;;;;;7.90;7.20;;;;;23.70;100639.00;;;;2062262;28;20219;-56
2021/09/12 02:17:04;;;;;;;7.27;6.67;;;;;23.70;100635.00;;;;2062260;28;20218;-56
2021/09/12 02:18:05;;;;;;;7.63;7.03;;;;;23.70;100632.00;;;;2062325;28;20264;-56
2021/09/12 02:19:05;;;;;;;7.97;7.17;;;;;23.70;100636.00;;;;2060916;28;20211;-57
2021/09/12 02:20:06;;;;;;;7.27;6.57;;;;;23.70;100632.00;;;;2062184;28;20218;-55
2021/09/12 02:21:07;;;;;;;7.75;7.03;;;;;23.70;100635.00;;;;2062122;28;20214;-57
2021/09/12 02:22:07;;;;;;;8.70;7.90;;;;;23.70;100633.00;;;;2065362;28;20293;-57
2021/09/12 02:23:07;;;;;;;7.57;6.97;;;;;23.70;100643.00;;;;2070145;28;20217;-57
2021/09/12 02:24:08;;;;;;;7.10;6.50;;;;;23.70;100634.00;;;;2069649;28;20210;-55
2021/09/12 02:25:09;;;;;;;7.97;7.27;;;;;23.70;100636.00;;;;2069842;28;20210;-57
2021/09/12 02:26:09;;;;;;;8.03;7.27;;;;;23.70;100628.00;;;;2070244;28;20222;-57
2021/09/12 02:27:09;;;;;;;7.97;7.20;;;;;23.70;100630.00;;;;2070683;28;20217;-56
2021/09/12 02:28:10;;;;;;;6.70;6.17;;;;;23.70;100627.00;;;;2070507;28;20206;-56
2021/09/12 02:29:10;;;;;;;7.47;6.87;;;;;23.70;100628.00;;;;2068940;28;20210;-55
2021/09/12 02:30:11;;;;;;;7.40;6.80;;;;;23.70;100627.00;;;;2070312;28;20234;-56
2021/09/12 02:31:11;;;;;;;8.17;7.47;;;;;23.70;100631.00;;;;2065806;28;20219;-58
2021/09/12 02:32:13;;;;;;;7.17;6.57;;;;;23.70;100629.00;;;;2061452;28;20726;-60
2021/09/12 02:33:13;;;;;;;6.00;5.60;;;;;23.70;100625.00;;;;2062277;28;20750;-54
2021/09/12 02:34:13;;;;;;;8.47;7.67;;;;;23.70;100631.00;;;;2062192;28;20277;-56
2021/09/12 02:35:14;;;;;;;7.40;6.80;;;;;23.70;100631.00;;;;2062195;28;20565;-56
2021/09/12 02:36:14;;;;;;;7.57;6.87;;;;;23.70;100636.00;;;;2061920;28;20219;-55
2021/09/12 02:37:14;;;;;;;7.23;6.63;;;;;23.70;100639.00;;;;2064656;28;20203;-56
2021/09/12 02:38:15;;;;;;;7.67;7.07;;;;;23.70;100636.00;;;;2064220;28;20218;-56
2021/09/12 02:39:15;;;;;;;8.00;6.57;;;;;23.70;100632.00;;;;2060898;28;20239;-56
2021/09/12 02:40:15;;;;;;;7.30;6.60;;;;;23.70;100636.00;;;;2061815;28;20318;-57
2021/09/12 02:41:16;;;;;;;7.47;6.77;;;;;23.70;100637.00;;;;2070092;28;20209;-56
2021/09/12 02:42:16;;;;;;;7.33;6.63;;;;;23.70;100639.00;;;;2070135;28;20206;-57
2021/09/12 02:43:17;;;;;;;7.90;7.20;;;;;23.70;100636.00;;;;2069043;28;20202;-56
2021/09/12 02:44:17;;;;;;;7.23;6.60;;;;;23.70;100637.00;;;;2062316;28;20215;-56
2021/09/12 02:45:18;;;;;;;7.77;7.10;;;;;23.70;100640.00;;;;2063612;28;20241;-56
2021/09/12 02:46:19;;;;;;;7.03;6.43;;;;;23.70;100642.00;;;;2066265;28;20211;-56
2021/09/12 02:47:19;;;;;;;6.45;5.95;;;;;23.70;100639.00;;;;2071914;28;20210;-57
2021/09/12 02:48:20;;;;;;;7.33;6.73;;;;;23.70;100634.00;;;;2067242;28;20206;-57
2021/09/12 02:49:20;;;;;;;7.60;6.90;;;;;23.70;100632.00;;;;2069707;28;20214;-57
2021/09/12 02:50:21;;;;;;;7.83;7.03;;;;;23.70;100630.00;;;;2070845;28;20641;-55
2021/09/12 02:51:21;;;;;;;7.77;7.07;;;;;23.70;100637.00;;;;2071370;28;20222;-56
2021/09/12 02:52:22;;;;;;;7.33;6.73;;;;;23.70;100639.00;;;;2070795;28;20210;-55
2021/09/12 02:53:22;;;;;;;8.10;7.30;;;;;23.70;100635.00;;;;2067473;28;20676;-56
2021/09/12 02:54:23;;;;;;;7.93;7.13;;;;;23.70;100633.00;;;;2071778;28;20657;-55
2021/09/12 02:55:23;;;;;;;7.77;7.07;;;;;23.70;100638.00;;;;2066775;28;20214;-55
2021/09/12 02:56:23;;;;;;;7.30;6.67;;;;;23.70;100635.00;;;;2071693;28;20306;-57
2021/09/12 02:57:24;;;;;;;7.00;6.40;;;;;23.50;100633.00;;;;2071669;28;20226;-57
2021/09/12 02:58:24;;;;;;;8.67;7.77;;;;;23.70;100641.00;;;;2071763;28;20218;-56
2021/09/12 02:59:24;;;;;;;8.20;7.40;;;;;23.70;100634.00;;;;2069118;28;20214;-55
2021/09/12 03:00:25;;;;;;;7.40;6.70;;;;;23.70;100635.00;;;;2071862;28;20679;-56
2021/09/12 03:01:25;;;;;;;6.97;6.27;;;;;23.70;100638.00;;;;2071676;28;20631;-55
2021/09/12 03:02:27;;;;;;;6.93;6.40;;;;;23.70;100628.00;;;;2071489;28;20280;-55
2021/09/12 03:03:27;;;;;;;7.18;6.50;;;;;23.70;100633.00;;;;2068941;28;20207;-56
2021/09/12 03:04:27;;;;;;;7.07;6.50;;;;;23.70;100634.00;;;;2063682;28;20222;-55
2021/09/12 03:05:28;;;;;;;7.70;7.00;;;;;23.70;100627.00;;;;2062711;28;20207;-56
2021/09/12 03:06:29;;;;;;;7.70;7.00;;;;;23.70;100634.00;;;;2062475;28;20268;-55
2021/09/12 03:07:30;;;;;;;8.23;7.53;;;;;23.70;100638.00;;;;2069692;28;20260;-54
2021/09/12 03:08:32;;;;;;;7.32;6.65;;;;;23.70;100628.00;;;;2060669;28;20222;-56
2021/09/12 03:09:32;;;;;;;7.25;6.55;;;;;23.70;100631.00;;;;2060752;28;20273;-56
2021/09/12 03:10:33;;;;;;;7.47;6.80;;;;;23.60;100634.00;;;;2062995;28;20675;-56
2021/09/12 03:11:34;;;;;;;6.60;5.90;;;;;23.70;100633.00;;;;2063104;28;20322;-56
2021/09/12 03:12:34;;;;;;;7.20;6.50;;;;;23.70;100636.00;;;;2062928;28;20237;-56
2021/09/12 03:13:34;;;;;;;6.30;5.80;;;;;23.70;100638.00;;;;2063105;28;20238;-56
2021/09/12 03:14:35;;;;;;;7.37;6.67;;;;;23.70;100637.00;;;;2062908;28;20219;-57
2021/09/12 03:15:35;;;;;;;7.20;6.50;;;;;23.70;100645.00;;;;2063067;28;20297;-57
2021/09/12 03:16:36;;;;;;;6.67;6.07;;;;;23.70;100641.00;;;;2064765;28;20221;-56
2021/09/12 03:17:36;;;;;;;7.00;6.40;;;;;23.70;100643.00;;;;2071558;28;20215;-56
2021/09/12 03:18:36;;;;;;;6.50;5.90;;;;;23.70;100640.00;;;;2071333;28;20296;-58
2021/09/12 03:19:37;;;;;;;6.70;6.10;;;;;23.70;100645.00;;;;2070068;28;20211;-58
2021/09/12 03:20:37;;;;;;;6.80;6.10;;;;;23.70;100648.00;;;;2070656;28;21058;-57
2021/09/12 03:21:37;;;;;;;7.20;6.50;;;;;23.70;100646.00;;;;2071421;28;20694;-56
2021/09/12 03:22:38;;;;;;;6.13;5.57;;;;;23.70;100639.00;;;;2063970;28;20223;-55
2021/09/12 03:23:38;;;;;;;8.50;6.90;;;;;23.70;100636.00;;;;2063614;28;20309;-55
2021/09/12 03:24:39;;;;;;;6.43;5.10;;;;;23.70;100638.00;;;;2063478;28;20277;-56
2021/09/12 03:25:39;;;;;;;6.70;6.10;;;;;23.70;100638.00;;;;2063526;28;20254;-57
2021/09/12 03:26:39;;;;;;;6.30;5.70;;;;;23.70;100638.00;;;;2063655;28;20222;-57
2021/09/12 03:27:40;;;;;;;6.87;6.30;;;;;23.70;100644.00;;;;2063419;28;20303;-55
2021/09/12 03:28:40;;;;;;;6.10;5.50;;;;;23.70;100638.00;;;;2063174;28;20219;-54
2021/09/12 03:29:41;;;;;;;6.20;5.63;;;;;23.70;100640.00;;;;2062763;28;20218;-56
2021/09/12 03:30:41;;;;;;;6.47;5.93;;;;;23.70;100641.00;;;;2063049;28;20602;-56
2021/09/12 03:31:41;;;;;;;5.93;5.43;;;;;23.70;100638.00;;;;2063213;28;20235;-57
2021/09/12 03:32:41;;;;;;;7.03;6.47;;;;;23.70;100642.00;;;;2063430;28;20215;-57
2021/09/12 03:33:42;;;;;;;6.87;6.27;;;;;23.70;100636.00;;;;2063467;28;20582;-55
2021/09/12 03:34:42;;;;;;;6.43;5.90;;;;;23.70;100633.00;;;;2063312;28;20587;-56
2021/09/12 03:35:43;;;;;;;6.80;5.70;;;;;23.70;100637.00;;;;2063105;28;20214;-56
2021/09/12 03:36:43;;;;;;;6.20;5.70;;;;;23.70;100634.00;;;;2063457;28;20215;-56
2021/09/12 03:37:43;;;;;;;6.50;6.00;;;;;23.70;100638.00;;;;2067956;28;20218;-55
2021/09/12 03:38:44;;;;;;;6.60;6.00;;;;;23.70;100634.00;;;;2062524;28;20726;-57
2021/09/12 03:39:44;;;;;;;7.50;6.80;;;;;23.70;100641.00;;;;2064514;28;20218;-57
2021/09/12 03:40:44;;;;;;;7.63;6.83;;;;;23.60;100632.00;;;;2063502;28;20218;-56
2021/09/12 03:41:45;;;;;;;6.90;6.20;;;;;23.60;100629.00;;;;2063329;28;20222;-56
2021/09/12 03:42:45;;;;;;;7.90;7.20;;;;;23.70;100637.00;;;;2063379;28;20229;-57
2021/09/12 03:43:45;;;;;;;6.27;5.70;;;;;23.70;100635.00;;;;2062553;28;20226;-57
2021/09/12 03:44:46;;;;;;;6.67;6.07;;;;;23.70;100636.00;;;;2063588;28;20250;-55
2021/09/12 03:45:46;;;;;;;7.10;6.40;;;;;23.70;100628.00;;;;2063511;28;20314;-56
2021/09/12 03:46:46;;;;;;;7.07;6.43;;;;;23.70;100631.00;;;;2066046;28;20272;-55
2021/09/12 03:47:47;;;;;;;7.13;6.50;;;;;23.70;100633.00;;;;2071403;28;20577;-57
2021/09/12 03:48:47;;;;;;;6.33;5.73;;;;;23.70;100639.00;;;;2070717;28;20229;-57
2021/09/12 03:49:47;;;;;;;7.07;6.37;;;;;23.70;100640.00;;;;2071120;28;20222;-56
2021/09/12 03:50:48;;;;;;;7.07;6.40;;;;;23.70;100630.00;;;;2071035;28;20997;-57
2021/09/12 03:51:48;;;;;;;6.53;5.93;;;;;23.70;100631.00;;;;2069673;28;20873;-56
2021/09/12 03:52:49;;;;;;;7.30;6.50;;;;;23.70;100629.00;;;;2068732;28;20237;-55
2021/09/12 03:53:49;;;;;;;6.07;5.57;;;;;23.70;100632.00;;;;2070187;28;20210;-56
2021/09/12 03:54:49;;;;;;;6.60;6.00;;;;;23.70;100624.00;;;;2069843;28;20245;-56
2021/09/12 03:55:50;;;;;;;6.87;6.27;;;;;23.70;100628.00;;;;2071152;28;20674;-57
2021/09/12 03:56:50;;;;;;;7.63;6.97;;;;;23.70;100627.00;;;;2070998;28;20222;-58
2021/09/12 03:57:50;;;;;;;6.60;6.10;;;;;23.70;100629.00;;;;2071060;28;20214;-57
2021/09/12 03:58:51;;;;;;;6.27;5.77;;;;;23.70;100631.00;;;;2070196;28;20244;-55
2021/09/12 03:59:51;;;;;;;5.87;5.30;;;;;23.70;100630.00;;;;2071260;28;20760;-55
2021/09/12 04:00:52;;;;;;;7.53;6.83;;;;;23.70;100629.00;;;;2071278;28;20220;-57
2021/09/12 04:01:52;;;;;;;7.10;6.50;;;;;23.70;100633.00;;;;2071223;28;20765;-55
2021/09/12 04:02:53;;;;;;;7.60;6.97;;;;;23.70;100642.00;;;;2071225;28;20313;-56
2021/09/12 04:03:53;;;;;;;5.93;5.40;;;;;23.70;100639.00;;;;2071229;28;20214;-55
2021/09/12 04:04:53;;;;;;;6.20;5.60;;;;;23.70;100634.00;;;;2071294;28;20620;-55
2021/09/12 04:05:54;;;;;;;6.97;6.27;;;;;23.70;100634.00;;;;2067025;28;20218;-56
2021/09/12 04:06:54;;;;;;;6.90;6.30;;;;;23.70;100630.00;;;;2064871;28;20210;-55
2021/09/12 04:07:54;;;;;;;6.43;5.83;;;;;23.70;100635.00;;;;2061522;28;20273;-56
2021/09/12 04:08:55;;;;;;;6.77;6.17;;;;;23.70;100628.00;;;;2061133;28;20611;-56
2021/09/12 04:09:55;;;;;;;8.50;6.53;;;;;23.70;100634.00;;;;2062452;28;20207;-56
2021/09/12 04:10:55;;;;;;;6.40;5.90;;;;;23.60;100629.00;;;;2062079;28;20265;-56
2021/09/12 04:11:56;;;;;;;5.43;5.03;;;;;23.70;100622.00;;;;2062560;28;20575;-57
2021/09/12 04:12:56;;;;;;;6.97;6.27;;;;;23.70;100624.00;;;;2064990;28;20233;-56
2021/09/12 04:13:57;;;;;;;6.87;6.30;;;;;23.70;100626.00;;;;2067783;28;20211;-57
2021/09/12 04:14:57;;;;;;;6.37;5.80;;;;;23.70;100632.00;;;;2069684;28;20217;-57
2021/09/12 04:15:57;;;;;;;7.20;6.30;;;;;23.70;100626.00;;;;2070460;28;20305;-55
2021/09/12 04:16:58;;;;;;;6.27;5.77;;;;;23.70;100633.00;;;;2069375;28;20214;-54
2021/09/12 04:17:58;;;;;;;5.77;5.27;;;;;23.70;100626.00;;;;2069467;28;20607;-61
2021/09/12 04:18:58;;;;;;;6.10;5.53;;;;;23.60;100632.00;;;;2069843;28;20202;-58
2021/09/12 04:19:59;;;;;;;6.37;5.80;;;;;23.70;100629.00;;;;2070841;28;20210;-58
2021/09/12 04:20:59;;;;;;;6.03;5.43;;;;;23.60;100630.00;;;;2070195;28;20207;-59
2021/09/12 04:21:59;;;;;;;6.50;6.00;;;;;23.60;100625.00;;;;2071166;28;20749;-58
2021/09/12 04:23:00;;;;;;;6.37;5.77;;;;;23.70;100628.00;;;;2071224;28;20658;-55
2021/09/12 04:24:00;;;;;;;5.70;5.20;;;;;23.70;100633.00;;;;2071121;28;20264;-58
2021/09/12 04:25:01;;;;;;;5.53;5.03;;;;;23.70;100628.00;;;;2070984;28;20206;-56
2021/09/12 04:26:01;;;;;;;6.80;6.20;;;;;23.60;100631.00;;;;2071038;28;20213;-56
2021/09/12 04:27:01;;;;;;;6.23;5.73;;;;;23.60;100635.00;;;;2071134;28;20221;-56
2021/09/12 04:28:02;;;;;;;5.70;5.27;;;;;23.70;100625.00;;;;2071059;28;20301;-55
2021/09/12 04:29:02;;;;;;;6.10;5.50;;;;;23.70;100632.00;;;;2069887;28;20228;-55
2021/09/12 04:30:04;;;;;;;5.60;5.10;;;;;23.60;100629.00;;;;2071029;28;20215;-56
2021/09/12 04:31:04;;;;;;;6.03;5.43;;;;;23.60;100634.00;;;;2070607;28;20301;-55
2021/09/12 04:32:06;;;;;;;6.03;5.37;;;;;23.60;100632.00;;;;2070426;28;20358;-56
2021/09/12 04:33:06;;;;;;;5.70;5.10;;;;;23.60;100633.00;;;;2068972;28;20215;-56
2021/09/12 04:34:07;;;;;;;5.30;4.90;;;;;23.60;100633.00;;;;2070854;28;20270;-57
2021/09/12 04:35:08;;;;;;;6.93;5.40;;;;;23.60;100632.00;;;;2064179;28;20219;-57
2021/09/12 04:36:08;;;;;;;6.60;5.95;;;;;23.60;100632.00;;;;2062760;28;20290;-56
2021/09/12 04:37:08;;;;;;;6.40;5.80;;;;;23.60;100628.00;;;;2064812;28;20226;-56
2021/09/12 04:38:09;;;;;;;5.30;4.60;;;;;23.70;100638.00;;;;2065577;28;20211;-57
2021/09/12 04:39:10;;;;;;;6.30;5.70;;;;;23.60;100636.00;;;;2064433;28;20269;-57
2021/09/12 04:40:10;;;;;;;5.13;4.73;;;;;23.70;100630.00;;;;2065419;28;20215;-55
2021/09/12 04:41:11;;;;;;;5.70;5.03;;;;;23.70;100637.00;;;;2061688;28;20497;-57
2021/09/12 04:42:11;;;;;;;4.70;4.30;;;;;23.60;100637.00;;;;2062522;28;20564;-56
2021/09/12 04:43:11;;;;;;;6.03;5.50;;;;;23.70;100641.00;;;;2062795;28;20780;-56
2021/09/12 04:44:12;;;;;;;5.47;4.97;;;;;23.60;100632.00;;;;2062897;28;20219;-57
2021/09/12 04:45:12;;;;;;;5.20;4.70;;;;;23.60;100636.00;;;;2062551;28;20211;-57
2021/09/12 04:46:12;;;;;;;5.63;5.13;;;;;23.60;100635.00;;;;2062779;28;20211;-55
2021/09/12 04:47:13;;;;;;;5.73;5.23;;;;;23.70;100642.00;;;;2065367;28;20214;-55
2021/09/12 04:48:13;;;;;;;5.70;5.17;;;;;23.60;100633.00;;;;2070878;28;20305;-55
2021/09/12 04:49:13;;;;;;;6.17;5.67;;;;;23.60;100635.00;;;;2069594;28;20757;-57
2021/09/12 04:50:14;;;;;;;5.93;5.30;;;;;23.60;100635.00;;;;2070908;28;20210;-57
2021/09/12 04:51:14;;;;;;;5.30;4.80;;;;;23.60;100638.00;;;;2070521;28;20221;-56
2021/09/12 04:52:15;;;;;;;5.47;4.93;;;;;23.60;100641.00;;;;2070948;28;20213;-54
2021/09/12 04:53:15;;;;;;;6.13;5.10;;;;;23.60;100636.00;;;;2070357;28;20253;-55
2021/09/12 04:54:15;;;;;;;5.50;5.00;;;;;23.60;100635.00;;;;2069116;28;20212;-56
2021/09/12 04:55:16;;;;;;;5.73;5.23;;;;;23.60;100640.00;;;;2062993;28;20223;-57
2021/09/12 04:56:16;;;;;;;5.43;4.90;;;;;23.60;100642.00;;;;2065388;28;20202;-57
2021/09/12 04:57:16;;;;;;;5.37;4.87;;;;;23.60;100640.00;;;;2070903;28;20212;-57
2021/09/12 04:58:17;;;;;;;5.43;5.00;;;;;23.60;100641.00;;;;2070571;28;20199;-56
2021/09/12 04:59:17;;;;;;;5.27;4.50;;;;;23.60;100648.00;;;;2069281;28;20226;-57
2021/09/12 05:00:18;;;;;;;5.63;5.07;;;;;23.60;100660.00;;;;2070615;28;20293;-57